createdAt,value
2018-11-04T00:00:10.307Z,17.53
2018-11-04T00:02:41.002Z,18.27
2018-11-04T00:05:12.646Z,17.93
2018-11-04T00:07:43.413Z,17.33
2018-11-04T00:18:29.006Z,17.17
2018-11-04T00:21:01.015Z,17.57
2018-11-04T00:23:57.981Z,17.47
2018-11-04T00:26:56.914Z,17.60
2018-11-04T00:29:45.740Z,17.93
2018-11-04T00:32:37.366Z,17.67
2018-11-04T00:35:18.320Z,17.43
2018-11-04T00:37:48.970Z,17.50
2018-11-04T00:40:21.591Z,17.80
2018-11-04T00:42:53.146Z,18.47
2018-11-04T00:45:23.952Z,17.50
2018-11-04T00:47:57.302Z,17.60
2018-11-04T00:50:28.740Z,17.37
2018-11-04T00:53:00.050Z,17.97
2018-11-04T00:59:58.106Z,16.03
2018-11-04T01:02:29.247Z,17.20
2018-11-04T01:04:59.978Z,17.27
2018-11-04T01:07:31.505Z,16.07
2018-11-04T01:10:02.049Z,16.20
2018-11-04T01:12:32.305Z,16.87
2018-11-04T01:15:06.646Z,16.43
2018-11-04T01:17:37.741Z,15.97
2018-11-04T01:20:10.396Z,16.67
2018-11-04T01:22:40.901Z,16.50
2018-11-04T01:25:11.690Z,15.90
2018-11-04T01:27:42.440Z,16.17
2018-11-04T01:30:15.618Z,17.07
2018-11-04T01:32:48.433Z,16.47
2018-11-04T01:35:19.621Z,16.40
2018-11-04T01:38:00.897Z,15.87
2018-11-04T01:40:44.692Z,16.90
2018-11-04T01:43:15.087Z,16.73
2018-11-04T01:45:45.106Z,15.80
2018-11-04T01:48:16.872Z,15.63
2018-11-04T01:50:46.897Z,15.17
2018-11-04T01:53:16.812Z,16.23
2018-11-04T01:55:47.551Z,15.80
2018-11-04T01:58:18.306Z,15.90
2018-11-04T02:00:48.802Z,15.90
2018-11-04T02:03:20.241Z,15.77
2018-11-04T02:05:51.228Z,14.93
2018-11-04T02:08:22.075Z,15.03
2018-11-04T02:10:53.440Z,15.17
2018-11-04T02:13:23.932Z,15.27
2018-11-04T02:15:54.390Z,15.73
2018-11-04T02:18:25.123Z,15.50
2018-11-04T02:20:55.719Z,14.83
2018-11-04T02:23:26.318Z,14.93
2018-11-04T02:25:57.801Z,15.20
2018-11-04T02:28:28.647Z,14.37
2018-11-04T02:31:00.751Z,14.13
2018-11-04T02:33:31.468Z,14.90
2018-11-04T02:36:02.089Z,14.33
2018-11-04T02:38:32.676Z,14.53
2018-11-04T02:41:03.668Z,14.17
2018-11-04T02:43:33.555Z,14.00
2018-11-04T02:46:03.877Z,14.13
2018-11-04T02:48:34.307Z,13.57
2018-11-04T02:51:05.969Z,12.80
2018-11-04T02:53:37.015Z,14.13
2018-11-04T02:56:07.676Z,13.47
2018-11-04T02:58:37.849Z,13.47
2018-11-04T03:01:07.928Z,13.07
2018-11-04T03:03:38.601Z,13.77
2018-11-04T03:06:09.314Z,12.73
2018-11-04T03:08:40.885Z,12.87
2018-11-04T03:11:12.797Z,13.43
2018-11-04T03:13:43.357Z,13.73
2018-11-04T03:16:16.151Z,13.90
2018-11-04T03:18:47.827Z,12.83
2018-11-04T03:21:18.461Z,13.47
2018-11-04T03:23:49.268Z,12.53
2018-11-04T03:26:20.013Z,12.80
2018-11-04T03:28:50.529Z,12.30
2018-11-04T03:31:21.065Z,12.30
2018-11-04T03:33:52.317Z,12.60
2018-11-04T03:36:23.138Z,12.50
2018-11-04T03:38:54.593Z,12.47
2018-11-04T03:41:25.801Z,12.17
2018-11-04T03:43:59.708Z,11.93
2018-11-04T03:46:30.789Z,12.57
2018-11-04T03:49:02.304Z,11.83
2018-11-04T03:51:33.021Z,11.67
2018-11-04T03:54:03.432Z,11.87
2018-11-04T03:56:34.894Z,11.30
2018-11-04T03:59:05.779Z,11.13
2018-11-04T04:01:36.794Z,11.40
2018-11-04T04:04:07.624Z,11.10
2018-11-04T04:06:38.080Z,10.53
2018-11-04T04:09:11.044Z,11.33
2018-11-04T04:11:42.665Z,10.83
2018-11-04T04:14:13.345Z,10.63
2018-11-04T04:16:43.817Z,10.00
2018-11-04T04:19:14.576Z,10.80
2018-11-04T04:21:46.275Z,11.23
2018-11-04T04:24:17.131Z,10.37
2018-11-04T04:26:48.753Z,9.80
2018-11-04T04:31:55.286Z,10.37
2018-11-04T04:34:25.769Z,9.90
2018-11-04T04:36:56.528Z,10.13
2018-11-04T04:39:27.248Z,10.43
2018-11-04T04:41:58.519Z,10.10
2018-11-04T04:44:29.104Z,10.60
2018-11-04T04:47:00.129Z,10.57
2018-11-04T04:49:31.551Z,9.43
2018-11-04T04:52:02.434Z,9.50
2018-11-04T04:54:33.271Z,9.60
2018-11-04T04:57:04.295Z,9.30
2018-11-04T04:59:35.305Z,8.87
2018-11-04T05:02:05.643Z,9.40
2018-11-04T05:04:36.568Z,9.63
2018-11-04T05:07:07.234Z,9.23
2018-11-04T05:09:37.892Z,9.40
2018-11-04T05:12:08.665Z,8.97
2018-11-04T05:14:40.825Z,9.03
2018-11-04T05:17:12.351Z,8.87
2018-11-04T05:22:20.181Z,9.00
2018-11-04T05:24:51.721Z,8.87
2018-11-04T05:27:27.715Z,8.33
2018-11-04T05:29:58.619Z,9.20
2018-11-04T05:32:29.428Z,8.73
2018-11-04T05:35:00.740Z,8.20
2018-11-04T05:37:31.247Z,8.80
2018-11-04T05:40:01.795Z,8.87
2018-11-04T05:42:33.068Z,8.40
2018-11-04T05:45:03.447Z,8.77
2018-11-04T05:47:35.154Z,8.40
2018-11-04T05:50:06.084Z,7.50
2018-11-04T05:52:37.222Z,8.27
2018-11-04T05:55:08.568Z,8.23
2018-11-04T05:57:39.921Z,8.77
2018-11-04T06:00:15.112Z,8.87
2018-11-04T06:02:49.320Z,8.37
2018-11-04T06:05:19.992Z,8.43
2018-11-04T06:07:50.870Z,8.30
2018-11-04T06:10:21.866Z,8.67
2018-11-04T06:12:52.599Z,8.07
2018-11-04T06:15:24.060Z,9.03
2018-11-04T06:17:54.768Z,7.70
2018-11-04T06:20:27.617Z,7.73
2018-11-04T06:22:58.443Z,7.87
2018-11-04T06:25:29.488Z,7.50
2018-11-04T06:28:00.012Z,7.63
2018-11-04T06:30:33.361Z,7.33
2018-11-04T06:33:03.377Z,8.33
2018-11-04T06:35:34.427Z,7.63
2018-11-04T06:38:05.283Z,8.13
2018-11-04T06:40:36.695Z,7.50
2018-11-04T06:43:06.705Z,8.37
2018-11-04T06:45:37.428Z,7.17
2018-11-04T06:48:08.473Z,8.57
2018-11-04T06:50:39.972Z,8.43
2018-11-04T06:53:11.669Z,7.60
2018-11-04T06:55:44.051Z,7.67
2018-11-04T06:58:14.995Z,8.03
2018-11-04T07:00:47.470Z,8.23
2018-11-04T07:03:19.037Z,8.23
2018-11-04T07:05:50.726Z,7.70
2018-11-04T07:08:21.958Z,8.27
2018-11-04T07:10:52.442Z,8.93
2018-11-04T07:13:23.401Z,8.20
2018-11-04T07:15:55.341Z,8.70
2018-11-04T07:18:26.216Z,8.13
2018-11-04T07:20:57.615Z,8.27
2018-11-04T07:23:28.955Z,8.43
2018-11-04T07:25:59.653Z,8.53
2018-11-04T07:28:33.470Z,8.17
2018-11-04T07:31:03.962Z,7.87
2018-11-04T07:33:34.710Z,7.83
2018-11-04T07:36:04.828Z,7.40
2018-11-04T07:38:37.639Z,7.80
2018-11-04T07:41:09.327Z,7.20
2018-11-04T07:43:40.141Z,7.17
2018-11-04T07:46:10.683Z,6.50
2018-11-04T07:48:41.450Z,7.03
2018-11-04T07:51:12.061Z,6.87
2018-11-04T07:53:43.487Z,6.77
2018-11-04T07:56:15.117Z,6.43
2018-11-04T07:58:46.368Z,6.87
2018-11-04T08:01:17.509Z,7.30
2018-11-04T08:03:48.607Z,6.93
2018-11-04T08:06:20.154Z,7.53
2018-11-04T08:08:51.660Z,6.93
2018-11-04T08:11:22.596Z,7.00
2018-11-04T08:13:57.713Z,7.30
2018-11-04T08:16:29.142Z,7.00
2018-11-04T08:19:00.174Z,6.97
2018-11-04T08:21:31.809Z,7.33
2018-11-04T08:24:02.457Z,7.27
2018-11-04T08:26:39.119Z,8.23
2018-11-04T08:29:11.229Z,7.07
2018-11-04T08:31:45.959Z,7.67
2018-11-04T08:34:17.218Z,7.40
2018-11-04T08:36:49.190Z,7.73
2018-11-04T08:39:22.028Z,7.30
2018-11-04T08:41:52.723Z,7.37
2018-11-04T08:44:23.722Z,7.23
2018-11-04T08:46:54.603Z,7.90
2018-11-04T08:49:26.106Z,7.60
2018-11-04T08:51:57.695Z,7.27
2018-11-04T08:54:29.243Z,7.30
2018-11-04T08:57:00.699Z,8.10
2018-11-04T08:59:32.968Z,7.03
2018-11-04T09:02:03.427Z,7.73
2018-11-04T09:04:33.962Z,7.77
2018-11-04T09:07:03.943Z,7.17
2018-11-04T09:09:35.207Z,7.70
2018-11-04T09:12:07.606Z,7.17
2018-11-04T09:14:40.754Z,7.17
2018-11-04T09:17:11.156Z,7.10
2018-11-04T09:19:42.536Z,7.10
2018-11-04T09:22:14.578Z,7.10
2018-11-04T09:24:45.587Z,7.17
2018-11-04T09:27:16.298Z,7.10
2018-11-04T09:29:58.368Z,7.50
2018-11-04T09:32:49.272Z,7.07
2018-11-04T09:35:19.870Z,6.97
2018-11-04T09:37:54.476Z,7.27
2018-11-04T09:40:27.929Z,7.53
2018-11-04T09:42:59.510Z,7.50
2018-11-04T09:45:32.053Z,7.17
2018-11-04T09:48:03.070Z,7.50
2018-11-04T09:50:34.884Z,7.57
2018-11-04T09:53:05.982Z,7.40
2018-11-04T09:55:42.215Z,7.40
2018-11-04T09:58:12.784Z,7.07
2018-11-04T10:00:43.567Z,7.07
2018-11-04T10:03:13.921Z,7.73
2018-11-04T10:05:45.155Z,7.10
2018-11-04T10:08:19.568Z,6.97
2018-11-04T10:10:52.022Z,7.50
2018-11-04T10:13:23.080Z,7.13
2018-11-04T10:15:57.017Z,7.17
2018-11-04T10:18:30.322Z,6.93
2018-11-04T10:21:01.711Z,7.03
2018-11-04T10:23:32.344Z,7.00
2018-11-04T10:26:02.996Z,7.27
2018-11-04T10:28:33.879Z,7.43
2018-11-04T10:31:06.049Z,6.60
2018-11-04T10:33:37.359Z,6.60
2018-11-04T10:36:08.009Z,6.27
2018-11-04T10:38:39.115Z,6.67
2018-11-04T10:41:10.329Z,6.10
2018-11-04T10:43:40.502Z,6.70
2018-11-04T10:46:12.436Z,6.60
2018-11-04T10:48:43.387Z,6.73
2018-11-04T10:51:14.427Z,6.83
2018-11-04T10:53:46.503Z,7.63
2018-11-04T10:56:17.287Z,6.97
2018-11-04T10:58:53.548Z,6.60
2018-11-04T11:01:26.913Z,7.07
2018-11-04T11:03:58.553Z,6.80
2018-11-04T11:06:29.071Z,6.50
2018-11-04T11:09:01.146Z,6.47
2018-11-04T11:11:36.439Z,6.67
2018-11-04T11:14:07.353Z,6.30
2018-11-04T11:16:38.256Z,6.57
2018-11-04T11:19:09.381Z,6.40
2018-11-04T11:21:43.731Z,6.27
2018-11-04T11:24:14.822Z,6.07
2018-11-04T11:26:45.825Z,6.70
2018-11-04T11:29:23.622Z,6.90
2018-11-04T11:31:54.369Z,6.90
2018-11-04T11:34:25.657Z,6.63
2018-11-04T11:36:56.498Z,6.53
2018-11-04T11:39:26.585Z,6.90
2018-11-04T11:41:57.792Z,7.47
2018-11-04T11:44:28.435Z,6.90
2018-11-04T11:46:58.587Z,6.13
2018-11-04T11:49:32.449Z,6.50
2018-11-04T11:52:03.149Z,6.10
2018-11-04T11:54:34.253Z,6.80
2018-11-04T11:57:05.783Z,6.80
2018-11-04T11:59:36.996Z,6.60
2018-11-04T12:02:07.753Z,6.13
2018-11-04T12:04:39.057Z,6.70
2018-11-04T12:07:11.927Z,6.40
2018-11-04T12:09:43.719Z,6.97
2018-11-04T12:12:14.626Z,6.80
2018-11-04T12:14:48.630Z,6.90
2018-11-04T12:17:20.196Z,6.33
2018-11-04T12:19:52.111Z,6.37
2018-11-04T12:22:22.729Z,6.10
2018-11-04T12:24:53.257Z,6.70
2018-11-04T12:27:23.787Z,6.97
2018-11-04T12:29:57.282Z,6.10
2018-11-04T12:32:27.776Z,5.80
2018-11-04T12:34:58.522Z,6.77
2018-11-04T12:37:30.175Z,5.60
2018-11-04T12:40:01.357Z,6.07
2018-11-04T12:42:38.682Z,6.47
2018-11-04T12:45:10.993Z,6.97
2018-11-04T12:47:41.620Z,6.67
2018-11-04T12:50:14.150Z,7.20
2018-11-04T12:52:45.335Z,6.73
2018-11-04T12:55:16.950Z,6.30
2018-11-04T12:57:48.069Z,6.10
2018-11-04T13:00:18.838Z,6.40
2018-11-04T13:02:52.851Z,6.40
2018-11-04T13:05:24.270Z,6.67
2018-11-04T13:08:00.465Z,6.37
2018-11-04T13:10:32.152Z,6.83
2018-11-04T13:13:03.527Z,6.53
2018-11-04T13:15:33.500Z,5.90
2018-11-04T13:18:04.026Z,6.20
2018-11-04T13:20:34.152Z,6.60
2018-11-04T13:23:04.733Z,6.73
2018-11-04T13:25:34.830Z,6.57
2018-11-04T13:28:05.729Z,5.63
2018-11-04T13:30:36.770Z,6.27
2018-11-04T13:33:07.224Z,6.07
2018-11-04T13:35:38.445Z,5.93
2018-11-04T13:38:08.512Z,5.67
2018-11-04T13:40:39.537Z,5.90
2018-11-04T13:43:10.842Z,5.53
2018-11-04T13:45:42.218Z,6.13
2018-11-04T13:48:13.765Z,6.30
2018-11-04T13:50:53.010Z,5.53
2018-11-04T13:53:24.355Z,5.83
2018-11-04T13:55:55.793Z,5.13
2018-11-04T13:58:28.420Z,6.10
2018-11-04T14:00:59.890Z,6.00
2018-11-04T14:03:33.947Z,6.47
2018-11-04T14:06:05.019Z,6.03
2018-11-04T14:08:35.905Z,6.50
2018-11-04T14:11:06.892Z,6.10
2018-11-04T14:13:37.868Z,6.27
2018-11-04T14:16:08.173Z,5.83
2018-11-04T14:18:38.853Z,6.17
2018-11-04T14:21:10.315Z,6.20
2018-11-04T14:23:44.730Z,6.20
2018-11-04T14:26:16.539Z,6.13
2018-11-04T14:28:48.551Z,6.43
2018-11-04T14:31:20.331Z,6.60
2018-11-04T14:33:54.911Z,6.10
2018-11-04T14:36:26.028Z,6.33
2018-11-04T14:38:57.782Z,6.50
2018-11-04T14:41:28.500Z,7.00
2018-11-04T14:43:59.423Z,5.97
2018-11-04T14:46:30.206Z,6.50
2018-11-04T14:49:01.790Z,6.37
2018-11-04T14:51:32.051Z,6.57
2018-11-04T14:54:02.347Z,6.57
2018-11-04T14:56:33.192Z,6.77
2018-11-04T14:59:03.632Z,6.50
2018-11-04T15:01:34.222Z,5.97
2018-11-04T15:04:04.950Z,6.43
2018-11-04T15:06:35.802Z,6.40
2018-11-04T15:09:07.294Z,6.67
2018-11-04T15:11:39.498Z,6.90
2018-11-04T15:14:10.693Z,6.83
2018-11-04T15:16:41.772Z,6.53
2018-11-04T15:19:12.740Z,6.63
2018-11-04T15:21:47.382Z,6.17
2018-11-04T15:24:19.170Z,7.63
2018-11-04T15:26:51.300Z,7.17
2018-11-04T15:29:22.303Z,7.67
2018-11-04T15:31:54.458Z,7.57
2018-11-04T15:34:30.856Z,7.80
2018-11-04T15:37:08.184Z,7.63
2018-11-04T15:39:39.741Z,7.23
2018-11-04T15:42:10.263Z,7.40
2018-11-04T15:44:41.497Z,7.50
2018-11-04T15:47:12.685Z,7.90
2018-11-04T15:49:43.346Z,7.20
2018-11-04T15:52:15.266Z,7.50
2018-11-04T15:54:46.041Z,7.70
2018-11-04T15:57:17.679Z,6.47
2018-11-04T15:59:48.834Z,7.10
2018-11-04T16:02:21.264Z,7.83
2018-11-04T16:04:55.997Z,7.53
2018-11-04T16:07:31.640Z,6.83
2018-11-04T16:10:02.892Z,7.20
2018-11-04T16:12:34.207Z,7.50
2018-11-04T16:15:05.411Z,7.47
2018-11-04T16:17:36.536Z,7.13
2018-11-04T16:20:08.123Z,7.70
2018-11-04T16:22:40.479Z,7.57
2018-11-04T16:25:12.611Z,7.20
2018-11-04T16:27:43.728Z,7.00
2018-11-04T16:30:15.930Z,7.03
2018-11-04T16:32:47.111Z,8.00
2018-11-04T16:35:17.968Z,7.93
2018-11-04T16:37:48.246Z,7.10
2018-11-04T16:40:19.590Z,7.73
2018-11-04T16:42:51.634Z,7.30
2018-11-04T16:45:21.685Z,7.47
2018-11-04T16:47:53.843Z,7.60
2018-11-04T16:50:26.056Z,7.90
2018-11-04T16:52:56.851Z,8.13
2018-11-04T16:55:27.636Z,8.20
2018-11-04T16:57:59.288Z,7.50
2018-11-04T17:00:29.999Z,8.13
2018-11-04T17:03:00.979Z,7.93
2018-11-04T17:05:32.899Z,8.10
2018-11-04T17:08:03.243Z,7.67
2018-11-04T17:10:34.382Z,8.20
2018-11-04T17:13:11.637Z,7.67
2018-11-04T17:15:42.900Z,7.87
2018-11-04T17:18:16.276Z,7.97
2018-11-04T17:20:47.518Z,6.97
2018-11-04T17:23:18.748Z,7.30
2018-11-04T17:25:50.433Z,7.50
2018-11-04T17:28:21.640Z,7.67
2018-11-04T17:30:52.536Z,7.60
2018-11-04T17:33:23.605Z,7.87
2018-11-04T17:35:56.273Z,7.20
2018-11-04T17:38:28.948Z,8.13
2018-11-04T17:41:00.520Z,7.83
2018-11-04T17:43:33.364Z,8.10
2018-11-04T17:46:03.441Z,7.30
2018-11-04T17:48:34.813Z,7.67
2018-11-04T17:51:06.110Z,8.50
2018-11-04T17:53:38.396Z,8.60
2018-11-04T17:56:09.760Z,8.50
2018-11-04T17:58:41.711Z,9.00
2018-11-04T18:01:13.778Z,8.33
2018-11-04T18:03:45.124Z,8.73
2018-11-04T18:06:15.470Z,8.57
2018-11-04T18:08:47.133Z,8.50
2018-11-04T18:11:17.894Z,8.70
2018-11-04T18:13:53.233Z,8.90
2018-11-04T18:16:25.036Z,8.87
2018-11-04T18:18:57.581Z,8.93
2018-11-04T18:21:28.575Z,8.67
2018-11-04T18:23:59.370Z,9.30
2018-11-04T18:26:33.487Z,9.00
2018-11-04T18:29:03.622Z,8.57
2018-11-04T18:31:35.264Z,9.20
2018-11-04T18:34:05.926Z,9.27
2018-11-04T18:36:36.752Z,10.83
2018-11-04T18:39:10.117Z,10.03
2018-11-04T18:41:41.024Z,10.37
2018-11-04T18:44:11.797Z,10.67
2018-11-04T18:46:42.739Z,10.23
2018-11-04T18:49:17.093Z,10.40
2018-11-04T18:51:48.131Z,10.07
2018-11-04T18:54:23.290Z,10.10
2018-11-04T18:56:54.684Z,9.23
2018-11-04T18:59:27.164Z,10.40
2018-11-04T19:02:07.682Z,9.40
2018-11-04T19:04:48.536Z,10.43
2018-11-04T19:07:19.873Z,10.17
2018-11-04T19:09:50.267Z,10.67
2018-11-04T19:12:21.177Z,10.10
2018-11-04T19:14:52.026Z,10.47
2018-11-04T19:17:22.772Z,10.93
2018-11-04T19:19:54.931Z,10.60
2018-11-04T19:22:25.143Z,9.60
2018-11-04T19:24:56.175Z,9.80
2018-11-04T19:27:27.628Z,10.50
2018-11-04T19:29:59.210Z,10.23
2018-11-04T19:32:29.891Z,10.37
2018-11-04T19:35:00.115Z,10.50
2018-11-04T19:37:30.989Z,10.63
2018-11-04T19:40:01.813Z,11.13
2018-11-04T19:42:32.531Z,11.13
2018-11-04T19:45:03.354Z,10.77
2018-11-04T19:47:33.472Z,11.43
2018-11-04T19:50:04.447Z,11.20
2018-11-04T19:52:35.574Z,12.17
2018-11-04T19:55:06.308Z,11.37
2018-11-04T19:57:37.654Z,11.37
2018-11-04T20:00:11.626Z,12.20
2018-11-04T20:02:42.625Z,11.97
2018-11-04T20:05:14.125Z,12.17
2018-11-04T20:07:45.126Z,12.57
2018-11-04T20:10:18.213Z,12.67
2018-11-04T20:13:52.437Z,12.17
2018-11-04T20:16:22.632Z,12.73
2018-11-04T20:18:58.826Z,13.67
2018-11-04T20:21:29.895Z,13.33
2018-11-04T20:24:06.264Z,13.03
2018-11-04T20:26:37.203Z,13.23
2018-11-04T20:29:08.307Z,14.10
2018-11-04T20:31:43.615Z,13.73
2018-11-04T20:34:18.972Z,15.17
2018-11-04T20:36:49.741Z,13.77
2018-11-04T20:39:29.003Z,14.23
2018-11-04T20:41:59.838Z,14.30
2018-11-04T20:44:30.757Z,14.23
2018-11-04T20:47:03.482Z,14.73
2018-11-04T20:49:40.902Z,13.53
2018-11-04T20:52:13.214Z,13.50
2018-11-04T20:54:46.721Z,13.80
2018-11-04T20:57:26.507Z,13.63
2018-11-04T21:00:00.876Z,13.27
2018-11-04T21:02:34.762Z,13.23
2018-11-04T21:05:13.791Z,12.70
2018-11-04T21:07:51.101Z,13.63
2018-11-04T21:10:27.376Z,13.40
2018-11-04T21:13:02.576Z,12.33
2018-11-04T21:15:39.192Z,12.20
2018-11-04T21:18:12.246Z,13.20
2018-11-04T21:20:46.562Z,12.67
2018-11-04T21:23:20.643Z,12.20
2018-11-04T21:25:53.466Z,12.87
2018-11-04T21:28:25.687Z,12.07
2018-11-04T21:30:58.480Z,12.07
2018-11-04T21:33:30.088Z,13.07
2018-11-04T21:36:01.134Z,12.40
2018-11-04T21:38:32.901Z,13.10
2018-11-04T21:41:04.379Z,12.33
2018-11-04T21:43:36.836Z,12.00
2018-11-04T21:46:07.470Z,12.10
2018-11-04T21:48:38.903Z,12.60
2018-11-04T21:51:09.646Z,12.60
2018-11-04T21:53:41.375Z,12.37
2018-11-04T21:56:12.214Z,12.77
2018-11-04T21:58:42.792Z,12.70
2018-11-04T22:01:18.313Z,12.93
2018-11-04T22:03:49.707Z,12.90
2018-11-04T22:06:21.502Z,13.40
2018-11-04T22:08:53.166Z,12.53
2018-11-04T22:11:23.788Z,13.10
2018-11-04T22:13:54.731Z,13.20
2018-11-04T22:16:25.537Z,12.43
2018-11-04T22:18:56.228Z,12.80
2018-11-04T22:21:28.182Z,12.80
2018-11-04T22:23:59.924Z,13.00
2018-11-04T22:26:30.627Z,14.17
2018-11-04T22:29:01.459Z,12.53
2018-11-04T22:31:32.220Z,13.43
2018-11-04T22:34:02.213Z,13.60
2018-11-04T22:36:33.178Z,13.17
2018-11-04T22:39:03.667Z,13.17
2018-11-04T22:41:34.374Z,13.90
2018-11-04T22:44:04.351Z,13.67
2018-11-04T22:46:34.545Z,14.47
2018-11-04T22:49:05.122Z,14.20
2018-11-04T22:51:35.269Z,14.97
2018-11-04T22:54:07.352Z,13.97
2018-11-04T22:56:38.205Z,13.93
2018-11-04T22:59:09.380Z,13.43
2018-11-04T23:01:40.242Z,13.70
2018-11-04T23:04:10.854Z,13.60
2018-11-04T23:06:41.715Z,14.40
2018-11-04T23:09:12.563Z,13.23
2018-11-04T23:11:43.048Z,14.60
2018-11-04T23:14:13.769Z,14.30
2018-11-04T23:16:44.551Z,14.60
2018-11-04T23:19:15.235Z,14.20
2018-11-04T23:21:48.379Z,14.43
2018-11-04T23:24:22.076Z,14.33
2018-11-04T23:26:53.914Z,14.40
2018-11-04T23:29:24.664Z,14.53
2018-11-04T23:31:56.121Z,14.47
2018-11-04T23:34:28.188Z,14.23
2018-11-04T23:36:59.048Z,14.83
2018-11-04T23:39:29.955Z,15.27
2018-11-04T23:42:00.878Z,14.67
2018-11-04T23:44:31.432Z,15.50
2018-11-04T23:47:02.116Z,15.23
2018-11-04T23:49:32.290Z,14.33
2018-11-04T23:52:03.581Z,14.90
2018-11-04T23:54:33.897Z,14.90
2018-11-04T23:57:04.109Z,15.30
2018-11-04T23:59:34.208Z,14.90
